Time;durP1;ratioP1;P1;durP2;ratioP2;P2;SDS_P1;SDS_P2;PMS_P1;PMS_P2;Temp;Humidity;BMP_temperature;BMP_pressure;BME280_temperature;BME280_humidity;BME280_pressure;Samples;Min_cycle;Max_cycle;Signal;HPM_P1;HPM_P2
2023/08/17 00:02:14;;;;;;;0.20;0.20;;;;;;;;;;5004922;28;20504;-70
2023/08/17 00:04:40;;;;;;;0.20;0.20;;;;;;;;;;5004983;28;20060;-69
2023/08/17 00:07:06;;;;;;;0.20;0.20;;;;;;;;;;5039141;28;20030;-70
2023/08/17 00:09:32;;;;;;;0.20;0.20;;;;;;;;;;5021248;28;20459;-70
2023/08/17 00:11:58;;;;;;;0.20;0.20;;;;;;;;;;5004698;28;20075;-70
2023/08/17 00:14:24;;;;;;;0.20;0.20;;;;;;;;;;5038905;28;20069;-69
2023/08/17 00:16:49;;;;;;;0.20;0.20;;;;;;;;;;5004801;28;20392;-69
2023/08/17 00:19:15;;;;;;;0.20;0.20;;;;;;;;;;5038768;28;20033;-70
2023/08/17 00:21:41;;;;;;;0.20;0.20;;;;;;;;;;5038508;28;20519;-69
2023/08/17 00:24:06;;;;;;;0.10;0.10;;;;;;;;;;5038644;28;20467;-70
2023/08/17 00:26:32;;;;;;;0.25;0.25;;;;;;;;;;5038749;28;20113;-70
2023/08/17 00:28:58;;;;;;;0.20;0.20;;;;;;;;;;5038441;28;20083;-70
2023/08/17 00:31:24;;;;;;;0.20;0.20;;;;;;;;;;5038805;28;20404;-70
2023/08/17 00:33:49;;;;;;;0.20;0.20;;;;;;;;;;5021115;28;20026;-69
2023/08/17 00:36:15;;;;;;;0.20;0.20;;;;;;;;;;5038442;28;20251;-70
2023/08/17 00:38:42;;;;;;;0.20;0.20;;;;;;;;;;5004463;28;20034;-70
2023/08/17 00:41:08;;;;;;;0.10;0.10;;;;;;;;;;5004305;28;20044;-69
2023/08/17 00:43:33;;;;;;;0.15;0.15;;;;;;;;;;5038614;28;20037;-69
2023/08/17 00:45:59;;;;;;;0.20;0.20;;;;;;;;;;5020808;28;20033;-69
2023/08/17 00:48:26;;;;;;;0.20;0.20;;;;;;;;;;5038426;28;20400;-69
2023/08/17 00:50:52;;;;;;;0.20;0.20;;;;;;;;;;5020473;28;20037;-70
2023/08/17 00:53:19;;;;;;;0.20;0.20;;;;;;;;;;5020500;28;20033;-71
2023/08/17 00:55:45;;;;;;;0.20;0.20;;;;;;;;;;5004227;28;20037;-70
2023/08/17 00:58:11;;;;;;;0.30;0.30;;;;;;;;;;4996201;28;20528;-70
2023/08/17 01:00:36;;;;;;;0.20;0.20;;;;;;;;;;5014335;28;20029;-70
2023/08/17 01:03:03;;;;;;;0.20;0.20;;;;;;;;;;4997602;28;20038;-70
2023/08/17 01:05:30;;;;;;;0.20;0.20;;;;;;;;;;4997685;28;20030;-70
2023/08/17 01:07:57;;;;;;;0.20;0.20;;;;;;;;;;4987048;28;20492;-70
2023/08/17 01:10:23;;;;;;;0.20;0.20;;;;;;;;;;5017084;28;20040;-69
2023/08/17 01:13:15;;;;;;;0.20;0.20;;;;;;;;;;5017523;28;20034;-70
2023/08/17 01:15:45;;;;;;;0.13;0.13;;;;;;;;;;5024695;28;20091;-69
2023/08/17 01:18:11;;;;;;;0.10;0.10;;;;;;;;;;5034823;28;20119;-69
2023/08/17 01:20:37;;;;;;;0.20;0.20;;;;;;;;;;5016139;28;20029;-69
2023/08/17 01:23:07;;;;;;;0.20;0.20;;;;;;;;;;5016650;28;20041;-69
2023/08/17 01:25:38;;;;;;;0.20;0.20;;;;;;;;;;5017344;28;20033;-69
2023/08/17 01:28:04;;;;;;;0.20;0.20;;;;;;;;;;5000691;28;20065;-69
2023/08/17 01:30:44;;;;;;;0.20;0.20;;;;;;;;;;5034342;28;20030;-69
2023/08/17 01:33:11;;;;;;;0.20;0.20;;;;;;;;;;5034626;28;20378;-70
2023/08/17 01:35:42;;;;;;;0.20;0.20;;;;;;;;;;5016783;28;20116;-69
2023/08/17 01:38:11;;;;;;;0.20;0.20;;;;;;;;;;5023148;28;20057;-70
2023/08/17 01:40:37;;;;;;;0.20;0.20;;;;;;;;;;4997057;28;20022;-69
2023/08/17 01:43:03;;;;;;;0.10;0.10;;;;;;;;;;4997165;28;20091;-70
2023/08/17 01:45:29;;;;;;;0.20;0.20;;;;;;;;;;5015393;28;20465;-70
2023/08/17 01:47:55;;;;;;;0.20;0.20;;;;;;;;;;4998253;28;20072;-72
2023/08/17 01:50:20;;;;;;;0.20;0.20;;;;;;;;;;5029456;28;20107;-70
2023/08/17 01:52:50;;;;;;;0.20;0.20;;;;;;;;;;5008692;28;20046;-71
2023/08/17 01:55:16;;;;;;;0.20;0.20;;;;;;;;;;5022328;28;20029;-69
2023/08/17 01:57:42;;;;;;;0.20;0.20;;;;;;;;;;5016741;28;20068;-69
2023/08/17 02:00:10;;;;;;;0.20;0.20;;;;;;;;;;5016401;28;20465;-70
2023/08/17 02:02:40;;;;;;;0.20;0.20;;;;;;;;;;5016801;28;20056;-69
2023/08/17 02:05:06;;;;;;;0.20;0.20;;;;;;;;;;5000015;28;20036;-69
2023/08/17 02:07:31;;;;;;;0.20;0.20;;;;;;;;;;5033831;28;20045;-70
2023/08/17 02:09:57;;;;;;;0.20;0.20;;;;;;;;;;5033942;28;20029;-70
2023/08/17 02:12:23;;;;;;;0.20;0.20;;;;;;;;;;5033915;28;20491;-69
2023/08/17 02:14:48;;;;;;;0.20;0.20;;;;;;;;;;5016013;28;20033;-69
2023/08/17 02:17:16;;;;;;;0.20;0.20;;;;;;;;;;5033770;28;20072;-71
2023/08/17 02:19:42;;;;;;;0.20;0.20;;;;;;;;;;4998662;28;20075;-71
2023/08/17 02:22:10;;;;;;;0.20;0.20;;;;;;;;;;5033759;28;20478;-69
2023/08/17 02:24:36;;;;;;;0.30;0.30;;;;;;;;;;5032632;28;20026;-69
2023/08/17 02:27:02;;;;;;;0.20;0.20;;;;;;;;;;5033759;28;20042;-70
2023/08/17 02:29:27;;;;;;;0.20;0.20;;;;;;;;;;5033621;28;20465;-70
2023/08/17 02:31:53;;;;;;;0.20;0.20;;;;;;;;;;5016001;28;20045;-70
2023/08/17 02:34:18;;;;;;;0.20;0.20;;;;;;;;;;5016094;28;20041;-69
2023/08/17 02:36:44;;;;;;;0.20;0.20;;;;;;;;;;5033587;28;20041;-69
2023/08/17 02:39:10;;;;;;;0.20;0.20;;;;;;;;;;5032146;28;20381;-69
2023/08/17 02:41:36;;;;;;;0.20;0.20;;;;;;;;;;5016113;28;20111;-69
2023/08/17 02:44:02;;;;;;;0.20;0.20;;;;;;;;;;5033325;28;20026;-70
2023/08/17 02:46:28;;;;;;;0.20;0.20;;;;;;;;;;5015892;28;20400;-70
2023/08/17 02:48:54;;;;;;;0.20;0.20;;;;;;;;;;5015798;28;20087;-70
2023/08/17 02:51:19;;;;;;;0.20;0.20;;;;;;;;;;5032363;28;20400;-70
2023/08/17 02:53:45;;;;;;;0.20;0.20;;;;;;;;;;5008665;28;20128;-70
2023/08/17 02:56:12;;;;;;;0.20;0.20;;;;;;;;;;5013586;28;20540;-70
2023/08/17 02:58:40;;;;;;;0.17;0.17;;;;;;;;;;4979848;28;20057;-70
2023/08/17 03:01:06;;;;;;;0.20;0.20;;;;;;;;;;4995740;28;20045;-70
2023/08/17 03:03:32;;;;;;;0.10;0.10;;;;;;;;;;4987288;28;20407;-69
2023/08/17 03:05:58;;;;;;;0.20;0.20;;;;;;;;;;5029068;28;20050;-70
2023/08/17 03:08:23;;;;;;;0.20;0.20;;;;;;;;;;5029554;28;20369;-70
2023/08/17 03:10:49;;;;;;;0.20;0.20;;;;;;;;;;5029234;28;20500;-71
2023/08/17 03:13:17;;;;;;;0.30;0.30;;;;;;;;;;5011720;28;20026;-71
2023/08/17 03:15:43;;;;;;;0.20;0.20;;;;;;;;;;5029146;28;20043;-71
2023/08/17 03:18:09;;;;;;;0.43;0.43;;;;;;;;;;5011615;28;20049;-71
2023/08/17 03:20:36;;;;;;;0.55;0.55;;;;;;;;;;5027748;28;20128;-70
2023/08/17 03:23:02;;;;;;;0.20;0.20;;;;;;;;;;5010369;28;20129;-70
2023/08/17 03:25:27;;;;;;;0.20;0.20;;;;;;;;;;5029434;28;20052;-69
2023/08/17 03:27:53;;;;;;;0.20;0.20;;;;;;;;;;5010887;28;20037;-70
2023/08/17 03:30:20;;;;;;;0.20;0.20;;;;;;;;;;5011364;28;20037;-72
2023/08/17 03:32:45;;;;;;;0.28;0.28;;;;;;;;;;5011644;28;20048;-69
2023/08/17 03:35:13;;;;;;;0.20;0.20;;;;;;;;;;5011515;28;20045;-71
2023/08/17 03:37:39;;;;;;;0.20;0.20;;;;;;;;;;4995683;28;20084;-70
2023/08/17 03:40:05;;;;;;;0.20;0.20;;;;;;;;;;5028790;28;20060;-70
2023/08/17 03:42:31;;;;;;;0.20;0.20;;;;;;;;;;5010766;28;20037;-69
2023/08/17 03:44:57;;;;;;;0.20;0.20;;;;;;;;;;5030433;28;20050;-76
2023/08/17 03:47:22;;;;;;;0.20;0.20;;;;;;;;;;5029464;28;20022;-70
2023/08/17 03:49:48;;;;;;;0.20;0.20;;;;;;;;;;5011418;28;20080;-74
2023/08/17 03:52:14;;;;;;;0.55;0.55;;;;;;;;;;5011398;28;20087;-71
2023/08/17 03:54:40;;;;;;;0.20;0.20;;;;;;;;;;5028396;28;20041;-70
2023/08/17 03:57:05;;;;;;;0.10;0.10;;;;;;;;;;5028382;28;20033;-71
2023/08/17 03:59:31;;;;;;;0.20;0.20;;;;;;;;;;5028863;28;20044;-69
2023/08/17 04:01:58;;;;;;;0.20;0.20;;;;;;;;;;5009933;28;20475;-70
2023/08/17 04:04:25;;;;;;;0.40;0.40;;;;;;;;;;5011047;28;20171;-72
2023/08/17 04:06:51;;;;;;;0.30;0.30;;;;;;;;;;5027304;28;20132;-70
2023/08/17 04:09:16;;;;;;;0.20;0.20;;;;;;;;;;5027019;28;20029;-72
2023/08/17 04:11:42;;;;;;;0.20;0.20;;;;;;;;;;5026916;28;20044;-71
2023/08/17 04:14:08;;;;;;;0.20;0.20;;;;;;;;;;5027101;28;20037;-70
2023/08/17 04:16:34;;;;;;;0.20;0.20;;;;;;;;;;4994474;28;20041;-72
2023/08/17 04:19:00;;;;;;;0.20;0.20;;;;;;;;;;5010869;28;20064;-71
2023/08/17 04:21:26;;;;;;;0.20;0.20;;;;;;;;;;5010484;28;20500;-71
2023/08/17 04:23:53;;;;;;;0.20;0.20;;;;;;;;;;5026296;28;20496;-71
2023/08/17 04:26:19;;;;;;;0.47;0.47;;;;;;;;;;4994118;28;20044;-71
2023/08/17 04:28:44;;;;;;;0.20;0.20;;;;;;;;;;5028152;28;20025;-72
2023/08/17 04:31:10;;;;;;;0.20;0.20;;;;;;;;;;5028265;28;20064;-71
2023/08/17 04:33:39;;;;;;;0.20;0.20;;;;;;;;;;5026354;28;20539;-71
2023/08/17 04:36:06;;;;;;;0.20;0.20;;;;;;;;;;4997522;28;20065;-74
2023/08/17 04:38:31;;;;;;;0.20;0.20;;;;;;;;;;5029765;28;20099;-72
2023/08/17 04:40:58;;;;;;;0.22;0.22;;;;;;;;;;4997286;28;20041;-71
2023/08/17 04:43:23;;;;;;;0.17;0.17;;;;;;;;;;5013648;28;20496;-71
2023/08/17 04:45:50;;;;;;;0.10;0.10;;;;;;;;;;5011899;28;20568;-75
2023/08/17 04:48:16;;;;;;;0.20;0.20;;;;;;;;;;5002985;28;20117;-73
2023/08/17 04:50:42;;;;;;;0.20;0.20;;;;;;;;;;4994418;28;20429;-77
2023/08/17 04:53:08;;;;;;;0.20;0.20;;;;;;;;;;5011696;28;20026;-75
2023/08/17 04:55:34;;;;;;;0.20;0.20;;;;;;;;;;4994106;28;20053;-71
2023/08/17 04:58:00;;;;;;;0.20;0.20;;;;;;;;;;5027209;28;20029;-72
2023/08/17 05:00:28;;;;;;;0.20;0.20;;;;;;;;;;4995559;28;20029;-72
2023/08/17 05:02:55;;;;;;;0.20;0.20;;;;;;;;;;4993981;28;20042;-74
2023/08/17 05:05:23;;;;;;;0.45;0.45;;;;;;;;;;4978455;28;20065;-75
2023/08/17 05:07:48;;;;;;;0.47;0.47;;;;;;;;;;5011790;28;20163;-70
2023/08/17 05:10:14;;;;;;;0.20;0.20;;;;;;;;;;5022012;28;20032;-70
2023/08/17 05:12:41;;;;;;;0.20;0.20;;;;;;;;;;5024341;28;20041;-72
2023/08/17 05:15:07;;;;;;;0.20;0.20;;;;;;;;;;5011314;28;20121;-70
2023/08/17 05:17:33;;;;;;;0.20;0.20;;;;;;;;;;5011405;28;20096;-71
2023/08/17 05:19:58;;;;;;;0.20;0.20;;;;;;;;;;5001507;28;20037;-71
2023/08/17 05:22:24;;;;;;;0.40;0.40;;;;;;;;;;5029363;28;20120;-72
2023/08/17 05:24:50;;;;;;;0.20;0.20;;;;;;;;;;4995399;28;20504;-70
2023/08/17 05:27:18;;;;;;;0.70;0.70;;;;;;;;;;5029873;28;20037;-70
2023/08/17 05:29:44;;;;;;;0.17;0.17;;;;;;;;;;5013037;28;20034;-71
2023/08/17 05:32:10;;;;;;;0.30;0.30;;;;;;;;;;5030816;28;20025;-70
2023/08/17 05:34:36;;;;;;;0.30;0.30;;;;;;;;;;5011349;28;20435;-72
2023/08/17 05:37:03;;;;;;;0.85;0.50;;;;;;;;;;5012839;28;20033;-75
2023/08/17 05:39:28;;;;;;;0.25;0.25;;;;;;;;;;5030467;28;20400;-70
2023/08/17 05:41:54;;;;;;;0.20;0.20;;;;;;;;;;5031480;28;20560;-72
2023/08/17 05:44:19;;;;;;;0.20;0.20;;;;;;;;;;5030431;28;20037;-70
2023/08/17 05:46:45;;;;;;;0.25;0.25;;;;;;;;;;5029607;28;20041;-77
2023/08/17 05:49:11;;;;;;;1.58;1.48;;;;;;;;;;5031092;28;20120;-69
2023/08/17 05:51:36;;;;;;;0.25;0.25;;;;;;;;;;5011233;28;20025;-72
2023/08/17 05:54:03;;;;;;;0.40;0.38;;;;;;;;;;5028976;28;20033;-70
2023/08/17 05:56:28;;;;;;;0.20;0.20;;;;;;;;;;4996468;28;20084;-71
2023/08/17 05:58:54;;;;;;;0.20;0.20;;;;;;;;;;5029526;28;20381;-71
2023/08/17 06:01:20;;;;;;;0.77;0.77;;;;;;;;;;5028140;28;20108;-71
2023/08/17 06:03:45;;;;;;;0.30;0.30;;;;;;;;;;5030160;28;20144;-71
2023/08/17 06:06:11;;;;;;;0.77;0.75;;;;;;;;;;4996337;28;20037;-71
2023/08/17 06:08:37;;;;;;;1.00;1.00;;;;;;;;;;5029391;28;20034;-70
2023/08/17 06:11:03;;;;;;;0.17;0.17;;;;;;;;;;5030423;28;20461;-71
2023/08/17 06:13:28;;;;;;;0.22;0.22;;;;;;;;;;5030507;28;20116;-69
2023/08/17 06:15:55;;;;;;;0.30;0.30;;;;;;;;;;5030178;28;20076;-72
2023/08/17 06:18:21;;;;;;;0.20;0.20;;;;;;;;;;5012666;28;20075;-71
2023/08/17 06:20:48;;;;;;;0.20;0.20;;;;;;;;;;5030477;28;20045;-70
2023/08/17 06:23:13;;;;;;;0.30;0.30;;;;;;;;;;4995243;28;20547;-71
2023/08/17 06:25:40;;;;;;;0.30;0.30;;;;;;;;;;4995963;28;20069;-71
2023/08/17 06:28:05;;;;;;;0.30;0.30;;;;;;;;;;5030368;28;20061;-69
2023/08/17 06:30:31;;;;;;;0.47;0.47;;;;;;;;;;5028849;28;20527;-69
2023/08/17 06:32:56;;;;;;;0.30;0.30;;;;;;;;;;5028464;28;20515;-69
2023/08/17 06:35:22;;;;;;;0.60;0.52;;;;;;;;;;5027362;28;20049;-71
2023/08/17 06:37:48;;;;;;;0.30;0.30;;;;;;;;;;4994429;28;20059;-71
2023/08/17 06:40:13;;;;;;;0.38;0.38;;;;;;;;;;5029542;28;20476;-70
2023/08/17 06:42:39;;;;;;;0.20;0.20;;;;;;;;;;5029879;28;20033;-70
2023/08/17 06:45:05;;;;;;;0.30;0.30;;;;;;;;;;5029613;28;20033;-71
2023/08/17 06:47:31;;;;;;;0.43;0.43;;;;;;;;;;5024992;28;20482;-71
2023/08/17 06:49:57;;;;;;;0.57;0.57;;;;;;;;;;5029496;28;20176;-69
2023/08/17 06:52:23;;;;;;;0.20;0.20;;;;;;;;;;5029893;28;20345;-70
2023/08/17 06:54:49;;;;;;;0.40;0.40;;;;;;;;;;4985590;28;20042;-75
2023/08/17 06:57:14;;;;;;;0.60;0.60;;;;;;;;;;5014951;28;20044;-71
2023/08/17 06:59:40;;;;;;;0.30;0.30;;;;;;;;;;5032499;28;20064;-71
2023/08/17 07:02:06;;;;;;;0.35;0.35;;;;;;;;;;5009879;28;20025;-71
2023/08/17 07:04:31;;;;;;;0.30;0.30;;;;;;;;;;5024812;28;20069;-71
2023/08/17 07:06:57;;;;;;;0.47;0.47;;;;;;;;;;5013954;28;20037;-70
2023/08/17 07:09:22;;;;;;;0.40;0.40;;;;;;;;;;5023790;28;20044;-72
2023/08/17 07:11:48;;;;;;;0.30;0.30;;;;;;;;;;5005219;28;20036;-72
2023/08/17 07:14:14;;;;;;;0.20;0.20;;;;;;;;;;5047662;28;20044;-72
2023/08/17 07:16:39;;;;;;;0.30;0.30;;;;;;;;;;5047563;28;20392;-73
2023/08/17 07:19:05;;;;;;;0.40;0.40;;;;;;;;;;5047632;28;20037;-72
2023/08/17 07:21:30;;;;;;;0.30;0.30;;;;;;;;;;5047446;28;20032;-76
2023/08/17 07:23:56;;;;;;;1.15;1.15;;;;;;;;;;5047382;28;20454;-77
2023/08/17 07:26:23;;;;;;;0.30;0.30;;;;;;;;;;5031278;28;20028;-70
2023/08/17 07:28:48;;;;;;;0.30;0.30;;;;;;;;;;5014467;28;20037;-72
2023/08/17 07:31:14;;;;;;;0.32;0.32;;;;;;;;;;5048559;28;20028;-71
2023/08/17 07:33:40;;;;;;;0.30;0.30;;;;;;;;;;5030204;28;20032;-71
2023/08/17 07:36:05;;;;;;;0.30;0.30;;;;;;;;;;5049279;28;20124;-71
2023/08/17 07:38:31;;;;;;;0.30;0.30;;;;;;;;;;5034278;28;20040;-72
2023/08/17 07:40:57;;;;;;;0.40;0.40;;;;;;;;;;5034601;28;20029;-77
2023/08/17 07:43:24;;;;;;;0.50;0.50;;;;;;;;;;5001670;28;20456;-73
2023/08/17 07:45:53;;;;;;;0.30;0.30;;;;;;;;;;4995054;28;20029;-71
2023/08/17 07:48:19;;;;;;;0.35;0.35;;;;;;;;;;5011454;28;20436;-70
2023/08/17 07:50:48;;;;;;;2.63;1.50;;;;;;;;;;5028792;28;21132;-72
2023/08/17 07:53:13;;;;;;;;;;;;;;;;;;4996241;28;20037;-70
2023/08/17 07:55:39;;;;;;;0.40;0.40;;;;;;;;;;5028298;28;19920;-72
2023/08/17 07:58:06;;;;;;;0.47;0.47;;;;;;;;;;5028982;28;20029;-71
2023/08/17 08:00:32;;;;;;;0.43;0.43;;;;;;;;;;5029222;28;20032;-70
2023/08/17 08:02:57;;;;;;;0.30;0.30;;;;;;;;;;5029904;28;20048;-70
2023/08/17 08:05:23;;;;;;;0.38;0.38;;;;;;;;;;5010616;28;20526;-70
2023/08/17 08:07:49;;;;;;;0.45;0.45;;;;;;;;;;5030033;28;20045;-70
2023/08/17 08:10:14;;;;;;;0.32;0.32;;;;;;;;;;5032510;28;20037;-70
2023/08/17 08:12:40;;;;;;;0.55;0.55;;;;;;;;;;5032229;28;20033;-75
2023/08/17 08:15:06;;;;;;;0.60;0.60;;;;;;;;;;5031973;28;20046;-70
2023/08/17 08:17:31;;;;;;;2.65;1.27;;;;;;;;;;5031684;28;20026;-70
2023/08/17 08:19:58;;;;;;;0.47;0.47;;;;;;;;;;5032102;28;20037;-71
2023/08/17 08:22:23;;;;;;;1.25;0.80;;;;;;;;;;5031991;28;20099;-69
2023/08/17 08:24:49;;;;;;;0.50;0.50;;;;;;;;;;5031885;28;20041;-69
2023/08/17 08:27:14;;;;;;;0.40;0.40;;;;;;;;;;4997530;28;20100;-70
2023/08/17 08:29:40;;;;;;;0.35;0.35;;;;;;;;;;4997312;28;20045;-70
2023/08/17 08:32:06;;;;;;;0.50;0.50;;;;;;;;;;5013813;28;20112;-70
2023/08/17 08:34:31;;;;;;;0.30;0.30;;;;;;;;;;5031824;28;20041;-70
2023/08/17 08:36:57;;;;;;;0.30;0.30;;;;;;;;;;5031621;28;20038;-69
2023/08/17 08:39:25;;;;;;;0.30;0.30;;;;;;;;;;5031684;28;20065;-69
2023/08/17 08:41:50;;;;;;;0.50;0.50;;;;;;;;;;4997242;28;20041;-71
2023/08/17 08:44:16;;;;;;;2.67;2.38;;;;;;;;;;5035360;28;20056;-75
2023/08/17 08:46:44;;;;;;;0.30;0.30;;;;;;;;;;5031607;28;20449;-70
2023/08/17 08:49:10;;;;;;;0.30;0.30;;;;;;;;;;4987531;28;20046;-69
2023/08/17 08:51:37;;;;;;;0.50;0.50;;;;;;;;;;4977636;28;20045;-69
2023/08/17 08:54:04;;;;;;;0.40;0.40;;;;;;;;;;4977588;28;20034;-70
2023/08/17 08:56:31;;;;;;;;;;;;;;;;;;4994642;28;20104;-69
2023/08/17 08:58:57;;;;;;;0.45;0.45;;;;;;;;;;5010558;28;20008;-69
2023/08/17 09:01:24;;;;;;;0.30;0.30;;;;;;;;;;4975547;28;20076;-69
2023/08/17 09:03:50;;;;;;;0.40;0.40;;;;;;;;;;4976002;28;20294;-72
2023/08/17 09:06:17;;;;;;;0.30;0.30;;;;;;;;;;5010525;28;20428;-69
2023/08/17 09:08:44;;;;;;;2.53;1.05;;;;;;;;;;4992661;28;20038;-69
2023/08/17 09:11:09;;;;;;;0.30;0.30;;;;;;;;;;4976582;28;20030;-69
2023/08/17 09:13:35;;;;;;;0.52;0.52;;;;;;;;;;5009171;28;20034;-70
2023/08/17 09:16:01;;;;;;;0.50;0.50;;;;;;;;;;5009938;28;20488;-76
2023/08/17 09:18:27;;;;;;;0.95;0.88;;;;;;;;;;5009079;28;20045;-71
2023/08/17 09:20:52;;;;;;;3.40;1.63;;;;;;;;;;5008891;28;20054;-69
2023/08/17 09:23:21;;;;;;;1.33;1.23;;;;;;;;;;5009003;28;20128;-70
2023/08/17 09:25:48;;;;;;;1.35;1.25;;;;;;;;;;4975366;28;20172;-70
2023/08/17 09:28:18;;;;;;;0.60;0.60;;;;;;;;;;4975335;28;20041;-73
2023/08/17 09:30:51;;;;;;;1.42;1.33;;;;;;;;;;5008845;28;20045;-72
2023/08/17 09:33:16;;;;;;;0.85;0.70;;;;;;;;;;4976381;28;20122;-72
2023/08/17 09:35:42;;;;;;;1.17;0.95;;;;;;;;;;5030267;28;20096;-71
2023/08/17 09:38:08;;;;;;;3.40;1.98;;;;;;;;;;5031090;28;20029;-70
2023/08/17 09:40:33;;;;;;;0.60;0.60;;;;;;;;;;5030209;28;20022;-72
2023/08/17 09:42:59;;;;;;;2.42;1.58;;;;;;;;;;5011441;28;20136;-71
2023/08/17 09:45:27;;;;;;;1.88;1.55;;;;;;;;;;5012854;28;20448;-75
2023/08/17 09:47:53;;;;;;;4.18;1.88;;;;;;;;;;5006862;28;20038;-70
2023/08/17 09:50:21;;;;;;;0.95;0.85;;;;;;;;;;5031696;28;20040;-71
2023/08/17 09:52:46;;;;;;;2.10;1.67;;;;;;;;;;5012652;28;20087;-72
2023/08/17 09:55:12;;;;;;;2.75;1.65;;;;;;;;;;5022823;28;20029;-71
2023/08/17 09:57:38;;;;;;;1.00;0.77;;;;;;;;;;5003593;28;20068;-78
2023/08/17 10:00:07;;;;;;;2.92;1.92;;;;;;;;;;5010416;28;20033;-72
2023/08/17 10:02:33;;;;;;;1.35;1.17;;;;;;;;;;4998467;28;20052;-75
2023/08/17 10:04:59;;;;;;;0.73;0.73;;;;;;;;;;5026976;28;20065;-71
2023/08/17 10:07:29;;;;;;;1.63;1.27;;;;;;;;;;5022375;28;20060;-70
2023/08/17 10:10:05;;;;;;;2.80;1.90;;;;;;;;;;5009496;28;20037;-70
2023/08/17 10:12:45;;;;;;;2.03;1.83;;;;;;;;;;4974469;28;20512;-70
2023/08/17 10:15:12;;;;;;;1.50;1.40;;;;;;;;;;4990610;28;20516;-71
2023/08/17 10:17:57;;;;;;;1.45;0.85;;;;;;;;;;5007182;28;20433;-72
2023/08/17 10:20:23;;;;;;;2.50;1.42;;;;;;;;;;5008309;28;20314;-72
2023/08/17 10:22:52;;;;;;;1.80;1.17;;;;;;;;;;4974475;28;20037;-71
2023/08/17 10:25:18;;;;;;;4.20;1.98;;;;;;;;;;4994453;28;20436;-70
2023/08/17 10:27:43;;;;;;;2.88;1.80;;;;;;;;;;5026601;28;20037;-72
2023/08/17 10:30:10;;;;;;;1.95;1.75;;;;;;;;;;4989141;28;20104;-74
2023/08/17 10:32:36;;;;;;;0.70;0.70;;;;;;;;;;5027614;28;20032;-70
2023/08/17 10:35:02;;;;;;;0.60;0.60;;;;;;;;;;5026945;28;20025;-76
2023/08/17 10:37:28;;;;;;;0.60;0.60;;;;;;;;;;5024341;28;20101;-70
2023/08/17 10:39:54;;;;;;;1.38;1.13;;;;;;;;;;5011847;28;20041;-71
2023/08/17 10:42:32;;;;;;;1.52;1.30;;;;;;;;;;5029664;28;20041;-71
2023/08/17 10:44:58;;;;;;;2.33;1.52;;;;;;;;;;4995366;28;20044;-70
2023/08/17 10:47:29;;;;;;;0.88;0.88;;;;;;;;;;5029501;28;20033;-71
2023/08/17 10:50:01;;;;;;;1.65;1.25;;;;;;;;;;5011616;28;20037;-72
2023/08/17 10:52:28;;;;;;;5.55;3.10;;;;;;;;;;5028387;28;20159;-72
2023/08/17 10:54:55;;;;;;;0.90;0.88;;;;;;;;;;5010480;28;20071;-72
2023/08/17 10:57:31;;;;;;;1.45;1.25;;;;;;;;;;4994021;28;20187;-69
2023/08/17 11:00:11;;;;;;;4.50;1.65;;;;;;;;;;4991618;28;20041;-69
2023/08/17 11:02:38;;;;;;;1.20;1.00;;;;;;;;;;4995165;28;20060;-70
2023/08/17 11:05:04;;;;;;;2.80;2.35;;;;;;;;;;5008558;28;20048;-70
2023/08/17 11:07:56;;;;;;;1.10;1.00;;;;;;;;;;4994168;28;20029;-69
2023/08/17 11:10:22;;;;;;;0.60;0.60;;;;;;;;;;5018459;28;20087;-70
2023/08/17 11:12:48;;;;;;;3.42;1.60;;;;;;;;;;4995221;28;20037;-69
2023/08/17 11:15:14;;;;;;;1.63;1.02;;;;;;;;;;5011627;28;20048;-70
2023/08/17 11:17:39;;;;;;;2.22;1.20;;;;;;;;;;4994712;28;20033;-69
2023/08/17 11:20:05;;;;;;;0.50;0.50;;;;;;;;;;5029212;28;20029;-70
2023/08/17 11:22:31;;;;;;;2.85;2.15;;;;;;;;;;5028994;28;20041;-70
2023/08/17 11:24:57;;;;;;;1.48;0.98;;;;;;;;;;5030799;28;20370;-71
2023/08/17 11:27:23;;;;;;;2.03;1.60;;;;;;;;;;4995173;28;20052;-76
2023/08/17 11:29:49;;;;;;;0.90;0.90;;;;;;;;;;5028777;28;20033;-75
2023/08/17 11:32:17;;;;;;;0.57;0.57;;;;;;;;;;5020585;28;20122;-70
2023/08/17 11:34:43;;;;;;;3.03;1.90;;;;;;;;;;4980565;28;20044;-70
2023/08/17 11:37:11;;;;;;;1.45;1.20;;;;;;;;;;5008999;28;20038;-71
2023/08/17 11:39:37;;;;;;;0.80;0.80;;;;;;;;;;4990313;28;20033;-70
2023/08/17 11:42:04;;;;;;;1.08;0.98;;;;;;;;;;4991028;28;20041;-69
2023/08/17 11:44:30;;;;;;;1.33;1.05;;;;;;;;;;5004289;28;20025;-70
2023/08/17 11:46:56;;;;;;;0.95;0.82;;;;;;;;;;5029626;28;20039;-70
2023/08/17 11:49:23;;;;;;;1.67;1.45;;;;;;;;;;5010725;28;20029;-69
2023/08/17 11:51:51;;;;;;;2.78;1.92;;;;;;;;;;4994491;28;20370;-70
2023/08/17 11:54:16;;;;;;;1.20;0.93;;;;;;;;;;4993871;28;20048;-74
2023/08/17 11:56:42;;;;;;;1.67;0.85;;;;;;;;;;4992197;28;20569;-75
2023/08/17 11:59:09;;;;;;;2.55;1.80;;;;;;;;;;5021898;28;20202;-72
2023/08/17 12:01:35;;;;;;;1.40;1.20;;;;;;;;;;4973648;28;20037;-70
2023/08/17 12:04:04;;;;;;;0.90;0.90;;;;;;;;;;4989885;28;20045;-70
2023/08/17 12:06:30;;;;;;;1.83;1.20;;;;;;;;;;4974574;28;20080;-74
2023/08/17 12:08:56;;;;;;;2.95;1.83;;;;;;;;;;4974748;28;20224;-71
2023/08/17 12:11:23;;;;;;;1.95;1.67;;;;;;;;;;5014500;28;20061;-70
2023/08/17 12:13:50;;;;;;;1.30;0.98;;;;;;;;;;4978641;28;20494;-72
2023/08/17 12:16:17;;;;;;;3.08;1.77;;;;;;;;;;4994617;28;20041;-72
2023/08/17 12:18:52;;;;;;;3.95;1.85;;;;;;;;;;4973151;28;20438;-74
2023/08/17 12:21:21;;;;;;;3.88;1.92;;;;;;;;;;4989284;28;20374;-74
2023/08/17 12:23:47;;;;;;;5.53;2.08;;;;;;;;;;5005942;28;20472;-74
2023/08/17 12:26:20;;;;;;;0.90;0.88;;;;;;;;;;5006808;28;20041;-72
2023/08/17 12:28:46;;;;;;;0.90;0.77;;;;;;;;;;5006995;28;20038;-71
2023/08/17 12:31:11;;;;;;;0.75;0.75;;;;;;;;;;5007038;28;20026;-72
2023/08/17 12:33:37;;;;;;;0.88;0.82;;;;;;;;;;5006805;28;20042;-75
2023/08/17 12:36:04;;;;;;;0.68;0.68;;;;;;;;;;5006591;28;20026;-73
2023/08/17 12:38:29;;;;;;;2.58;1.92;;;;;;;;;;5006954;28;20044;-73
2023/08/17 12:40:55;;;;;;;2.53;1.00;;;;;;;;;;5006869;28;20033;-73
2023/08/17 12:43:21;;;;;;;1.17;0.95;;;;;;;;;;5006653;28;20409;-72
2023/08/17 12:45:47;;;;;;;1.08;0.93;;;;;;;;;;5006447;28;20034;-75
2023/08/17 12:48:13;;;;;;;0.68;0.68;;;;;;;;;;5006372;28;20378;-72
2023/08/17 12:50:38;;;;;;;0.85;0.85;;;;;;;;;;5006410;28;20022;-75
2023/08/17 12:53:04;;;;;;;1.35;1.15;;;;;;;;;;5006460;28;20440;-73
2023/08/17 12:55:30;;;;;;;0.52;0.52;;;;;;;;;;5008888;28;20469;-72
2023/08/17 12:57:56;;;;;;;0.52;0.52;;;;;;;;;;5009532;28;20029;-73
2023/08/17 13:00:22;;;;;;;1.33;1.10;;;;;;;;;;5009299;28;20034;-72
2023/08/17 13:02:51;;;;;;;0.80;0.80;;;;;;;;;;5009820;28;20107;-74
2023/08/17 13:05:16;;;;;;;;;;;;;;;;;;5010264;28;20496;-72
2023/08/17 13:07:42;;;;;;;1.27;1.17;;;;;;;;;;5009708;28;19913;-73
2023/08/17 13:10:08;;;;;;;2.17;1.15;;;;;;;;;;5009536;28;20125;-75
2023/08/17 13:12:34;;;;;;;1.02;0.70;;;;;;;;;;5009500;28;20045;-74
2023/08/17 13:14:59;;;;;;;3.72;1.40;;;;;;;;;;5009329;28;20077;-78
2023/08/17 13:17:25;;;;;;;0.50;0.50;;;;;;;;;;5009620;28;20045;-73
2023/08/17 13:19:51;;;;;;;1.80;0.77;;;;;;;;;;4991674;28;20038;-72
2023/08/17 13:22:17;;;;;;;1.05;0.60;;;;;;;;;;5009354;28;20117;-74
2023/08/17 13:24:42;;;;;;;0.65;0.65;;;;;;;;;;4991305;28;20060;-73
2023/08/17 13:27:08;;;;;;;1.38;1.27;;;;;;;;;;5009794;28;20021;-75
2023/08/17 13:29:35;;;;;;;0.52;0.52;;;;;;;;;;5009528;28;20057;-73
2023/08/17 13:32:01;;;;;;;0.93;0.90;;;;;;;;;;5009219;28;20362;-75
2023/08/17 13:34:26;;;;;;;1.13;1.02;;;;;;;;;;5009141;28;20100;-75
2023/08/17 13:36:52;;;;;;;0.43;0.43;;;;;;;;;;5008627;28;20049;-78
2023/08/17 13:39:18;;;;;;;4.88;1.67;;;;;;;;;;5009604;28;20061;-74
2023/08/17 13:41:43;;;;;;;1.02;0.75;;;;;;;;;;5008849;28;20418;-73
2023/08/17 13:44:09;;;;;;;0.80;0.80;;;;;;;;;;5009048;28;20045;-72
2023/08/17 13:46:36;;;;;;;0.50;0.50;;;;;;;;;;5008508;28;20129;-74
2023/08/17 13:49:02;;;;;;;0.68;0.68;;;;;;;;;;5008274;28;20107;-73
2023/08/17 13:51:28;;;;;;;0.98;0.90;;;;;;;;;;5009176;28;20038;-73
2023/08/17 13:53:53;;;;;;;0.52;0.52;;;;;;;;;;5008838;28;20185;-76
2023/08/17 13:56:19;;;;;;;1.00;0.63;;;;;;;;;;5009147;28;20367;-74
2023/08/17 13:58:44;;;;;;;0.43;0.43;;;;;;;;;;5008846;28;20026;-75
2023/08/17 14:01:11;;;;;;;0.50;0.50;;;;;;;;;;5016182;28;20048;-78
2023/08/17 14:03:37;;;;;;;0.40;0.40;;;;;;;;;;5020439;28;20050;-78
2023/08/17 14:06:03;;;;;;;0.38;0.38;;;;;;;;;;5008679;28;20034;-72
2023/08/17 14:08:29;;;;;;;0.95;0.63;;;;;;;;;;5009102;28;20026;-74
2023/08/17 14:10:54;;;;;;;0.70;0.70;;;;;;;;;;5008878;28;20037;-74
2023/08/17 14:13:20;;;;;;;0.85;0.85;;;;;;;;;;5008327;28;20037;-74
2023/08/17 14:15:45;;;;;;;0.93;0.70;;;;;;;;;;5008528;28;20057;-74
2023/08/17 14:18:11;;;;;;;1.02;1.00;;;;;;;;;;5008761;28;20120;-75
2023/08/17 14:20:37;;;;;;;0.73;0.60;;;;;;;;;;5008849;28;20032;-73
2023/08/17 14:23:02;;;;;;;0.45;0.45;;;;;;;;;;5008444;28;20048;-73
2023/08/17 14:25:28;;;;;;;0.60;0.60;;;;;;;;;;5008493;28;20069;-73
2023/08/17 14:27:54;;;;;;;0.50;0.50;;;;;;;;;;5008818;28;20397;-81
2023/08/17 14:30:19;;;;;;;0.73;0.73;;;;;;;;;;5007703;28;20034;-73
2023/08/17 14:32:45;;;;;;;1.40;0.90;;;;;;;;;;4991071;28;20363;-74
2023/08/17 14:35:10;;;;;;;0.95;0.80;;;;;;;;;;5017157;28;20037;-74
2023/08/17 14:37:36;;;;;;;0.70;0.70;;;;;;;;;;5012538;28;20033;-79
2023/08/17 14:40:02;;;;;;;0.85;0.85;;;;;;;;;;5027574;28;20029;-73